createdAt,value
2022-08-09T00:01:01.022Z,4.57
2022-08-09T00:04:10.959Z,4.03
2022-08-09T00:06:22.884Z,4.40
2022-08-09T00:08:53.295Z,5.30
2022-08-09T00:11:55.097Z,4.37
2022-08-09T00:14:21.768Z,4.10
2022-08-09T00:16:56.968Z,3.77
2022-08-09T00:19:27.684Z,4.43
2022-08-09T00:21:57.104Z,3.60
2022-08-09T00:24:27.529Z,3.73
2022-08-09T00:26:56.239Z,3.73
2022-08-09T00:29:39.174Z,4.50
2022-08-09T00:32:25.301Z,4.93
2022-08-09T00:34:56.600Z,3.90
2022-08-09T00:37:26.912Z,6.10
2022-08-09T00:40:13.263Z,7.73
2022-08-09T00:44:13.636Z,4.20
2022-08-09T00:45:36.991Z,4.20
2022-08-09T00:48:06.350Z,6.13
2022-08-09T00:50:37.929Z,3.60
2022-08-09T00:53:10.532Z,4.03
2022-08-09T00:56:05.164Z,4.07
2022-08-09T00:58:31.669Z,4.00
2022-08-09T01:01:03.389Z,4.87
2022-08-09T01:03:46.547Z,4.20
2022-08-09T01:06:22.138Z,4.87
2022-08-09T01:09:06.142Z,4.83
2022-08-09T01:11:53.167Z,4.17
2022-08-09T01:14:30.457Z,9.43
2022-08-09T01:17:08.861Z,5.13
2022-08-09T01:20:01.462Z,4.47
2022-08-09T01:23:04.506Z,7.77
2022-08-09T01:25:58.527Z,5.00
2022-08-09T01:28:29.437Z,4.93
2022-08-09T01:31:02.266Z,5.23
2022-08-09T01:33:40.865Z,4.93
2022-08-09T01:36:14.243Z,6.60
2022-08-09T01:38:48.879Z,5.77
2022-08-09T01:41:25.917Z,5.17
2022-08-09T01:43:59.012Z,5.40
2022-08-09T01:46:30.323Z,7.33
2022-08-09T01:49:10.349Z,5.73
2022-08-09T01:51:44.542Z,7.93
2022-08-09T01:54:27.036Z,5.23
2022-08-09T01:57:04.229Z,6.57
2022-08-09T01:59:40.952Z,5.40
2022-08-09T02:02:22.220Z,5.90
2022-08-09T02:04:52.091Z,5.50
2022-08-09T02:08:35.393Z,5.87
2022-08-09T02:10:18.464Z,5.90
2022-08-09T02:13:02.287Z,6.80
2022-08-09T02:15:48.929Z,6.73
2022-08-09T02:18:23.630Z,6.03
2022-08-09T02:20:56.958Z,5.73
2022-08-09T02:23:39.592Z,5.53
2022-08-09T02:26:24.914Z,6.10
2022-08-09T02:28:59.768Z,6.60
2022-08-09T02:31:36.652Z,6.53
2022-08-09T02:34:40.936Z,11.43
2022-08-09T02:37:07.145Z,7.60
2022-08-09T02:39:42.521Z,9.13
2022-08-09T02:42:16.785Z,9.03
2022-08-09T02:44:50.028Z,8.13
2022-08-09T02:47:22.494Z,6.73
2022-08-09T02:50:01.274Z,7.43
2022-08-09T02:52:37.608Z,8.37
2022-08-09T02:55:21.072Z,6.57
2022-08-09T02:58:00.655Z,6.47
2022-08-09T03:00:48.018Z,7.03
2022-08-09T03:04:12.947Z,7.60
2022-08-09T03:06:21.520Z,7.63
2022-08-09T03:08:52.385Z,11.20
2022-08-09T03:12:04.067Z,8.07
2022-08-09T03:14:13.054Z,7.30
2022-08-09T03:16:45.017Z,8.23
2022-08-09T03:19:57.775Z,7.80
2022-08-09T03:22:12.234Z,9.07
2022-08-09T03:24:51.811Z,7.57
2022-08-09T03:27:22.415Z,9.23
2022-08-09T03:29:57.729Z,7.47
2022-08-09T03:32:31.663Z,8.03
2022-08-09T03:35:02.207Z,9.20
2022-08-09T03:37:55.364Z,10.97
2022-08-09T03:40:22.741Z,10.23
2022-08-09T03:42:52.831Z,7.70
2022-08-09T03:46:04.623Z,10.77
2022-08-09T03:48:18.857Z,9.50
2022-08-09T03:50:50.351Z,7.83
2022-08-09T03:53:22.275Z,8.03
2022-08-09T03:56:01.006Z,7.80
2022-08-09T03:58:29.700Z,9.00
2022-08-09T04:01:00.997Z,8.50
2022-08-09T04:03:46.390Z,8.90
2022-08-09T04:06:20.557Z,7.93
2022-08-09T04:08:53.589Z,8.40
2022-08-09T04:11:22.097Z,9.70
2022-08-09T04:14:54.289Z,8.93
2022-08-09T04:16:41.776Z,9.50
2022-08-09T04:19:15.973Z,9.70
2022-08-09T04:22:03.197Z,8.20
2022-08-09T04:24:31.928Z,9.50
2022-08-09T04:27:01.738Z,8.97
2022-08-09T04:29:30.530Z,10.10
2022-08-09T04:32:01.395Z,9.43
2022-08-09T04:34:31.870Z,8.83
2022-08-09T04:37:00.344Z,10.40
2022-08-09T04:39:31.305Z,9.10
2022-08-09T04:41:59.977Z,10.63
2022-08-09T04:44:31.253Z,11.80
2022-08-09T04:47:04.628Z,11.20
2022-08-09T04:49:52.235Z,9.07
2022-08-09T04:52:32.275Z,10.83
2022-08-09T04:55:04.613Z,9.60
2022-08-09T04:57:54.229Z,10.63
2022-08-09T05:00:34.210Z,9.07
2022-08-09T05:03:13.335Z,10.23
2022-08-09T05:06:06.759Z,11.03
2022-08-09T05:08:36.255Z,10.07
2022-08-09T05:11:07.621Z,15.43
2022-08-09T05:13:38.844Z,10.10
2022-08-09T05:16:08.709Z,13.83
2022-08-09T05:18:55.391Z,9.90
2022-08-09T05:21:30.087Z,14.00
2022-08-09T05:24:06.758Z,12.23
2022-08-09T05:26:46.019Z,10.63
2022-08-09T05:29:21.902Z,9.67
2022-08-09T05:31:57.155Z,10.50
2022-08-09T05:34:30.379Z,10.33
2022-08-09T05:37:02.398Z,13.13
2022-08-09T05:39:36.400Z,9.73
2022-08-09T05:42:17.629Z,11.10
2022-08-09T05:44:51.640Z,10.87
2022-08-09T05:47:22.805Z,11.57
2022-08-09T05:50:32.052Z,9.43
2022-08-09T05:52:41.808Z,10.50
2022-08-09T05:55:20.993Z,12.20
2022-08-09T05:57:56.562Z,14.23
2022-08-09T06:00:26.858Z,11.37
2022-08-09T06:03:01.084Z,11.40
2022-08-09T06:05:57.417Z,9.83
2022-08-09T06:08:24.796Z,10.13
2022-08-09T06:10:55.102Z,9.50
2022-08-09T06:13:25.728Z,8.63
2022-08-09T06:15:57.184Z,8.57
2022-08-09T06:18:29.937Z,12.80
2022-08-09T06:21:01.466Z,9.80
2022-08-09T06:23:58.688Z,9.20
2022-08-09T06:26:22.403Z,13.33
2022-08-09T06:29:00.087Z,10.57
2022-08-09T06:31:40.376Z,11.10
2022-08-09T06:34:26.348Z,12.27
2022-08-09T06:36:59.846Z,12.77
2022-08-09T06:39:57.306Z,14.10
2022-08-09T06:42:20.227Z,9.30
2022-08-09T06:44:55.472Z,8.83
2022-08-09T06:47:30.167Z,7.77
2022-08-09T06:50:16.736Z,12.23
2022-08-09T06:52:48.666Z,11.57
2022-08-09T06:55:18.666Z,9.43
2022-08-09T06:58:03.289Z,7.67
2022-08-09T07:00:57.360Z,8.00
2022-08-09T07:03:27.756Z,7.23
2022-08-09T07:06:03.802Z,7.93
2022-08-09T07:08:34.254Z,10.83
2022-08-09T07:11:06.240Z,9.97
2022-08-09T07:13:45.112Z,8.17
2022-08-09T07:16:43.015Z,8.10
2022-08-09T07:19:23.209Z,9.20
2022-08-09T07:21:57.375Z,6.60
2022-08-09T07:24:40.110Z,12.73
2022-08-09T07:27:27.109Z,5.50
2022-08-09T07:30:01.092Z,10.20
2022-08-09T07:32:33.743Z,7.53
2022-08-09T07:35:07.974Z,9.57
2022-08-09T07:37:43.698Z,8.50
2022-08-09T07:40:17.146Z,5.10
2022-08-09T07:42:54.184Z,6.07
2022-08-09T07:45:40.018Z,5.03
2022-08-09T07:48:22.545Z,8.53
2022-08-09T07:51:09.226Z,4.90
2022-08-09T07:54:05.277Z,5.00
2022-08-09T07:56:35.985Z,4.33
2022-08-09T07:59:15.836Z,4.20
2022-08-09T08:01:56.041Z,4.77
2022-08-09T08:04:31.454Z,7.57
2022-08-09T08:07:14.933Z,3.00
2022-08-09T08:10:05.687Z,5.30
2022-08-09T08:12:43.131Z,4.13
2022-08-09T08:15:14.190Z,4.77
2022-08-09T08:17:53.493Z,3.00
2022-08-09T08:20:29.444Z,2.43
2022-08-09T08:23:03.844Z,2.80
2022-08-09T08:25:48.096Z,2.40
2022-08-09T08:28:31.953Z,8.95
2022-08-09T08:31:10.394Z,3.83
2022-08-09T08:33:52.765Z,4.43
2022-08-09T08:36:28.662Z,2.17
2022-08-09T08:38:58.298Z,1.77
2022-08-09T08:41:42.099Z,2.95
2022-08-09T08:44:27.124Z,2.13
2022-08-09T08:47:02.654Z,5.95
2022-08-09T08:49:47.328Z,1.70
2022-08-09T08:52:53.108Z,7.43
2022-08-09T08:55:10.893Z,4.03
2022-08-09T08:57:42.730Z,3.30
2022-08-09T09:00:17.042Z,1.80
2022-08-09T09:02:52.754Z,1.55
2022-08-09T09:05:58.379Z,3.15
2022-08-09T09:08:29.709Z,1.45
2022-08-09T09:11:01.807Z,1.65
2022-08-09T09:13:34.713Z,2.10
2022-08-09T09:16:17.240Z,1.40
2022-08-09T09:19:22.709Z,3.53
2022-08-09T09:22:03.681Z,5.80
2022-08-09T09:24:37.807Z,3.53
2022-08-09T09:27:08.717Z,4.78
2022-08-09T09:30:10.726Z,2.30
2022-08-09T09:32:32.234Z,4.43
2022-08-09T09:35:09.351Z,2.78
2022-08-09T09:37:40.708Z,4.00
2022-08-09T09:40:12.615Z,1.98
2022-08-09T09:42:43.085Z,2.78
2022-08-09T09:45:26.910Z,3.35
2022-08-09T09:47:59.080Z,2.72
2022-08-09T09:50:49.604Z,1.95
2022-08-09T09:53:44.026Z,2.35
2022-08-09T09:56:31.029Z,4.18
2022-08-09T09:59:00.801Z,2.38
2022-08-09T10:01:38.090Z,4.60
2022-08-09T10:04:22.810Z,4.05
2022-08-09T10:07:03.302Z,1.92
2022-08-09T10:09:54.961Z,1.58
2022-08-09T10:12:31.533Z,1.50
2022-08-09T10:15:17.483Z,1.80
2022-08-09T10:18:12.295Z,3.38
2022-08-09T10:20:44.931Z,1.50
2022-08-09T10:23:20.832Z,4.47
2022-08-09T10:26:07.296Z,1.42
2022-08-09T10:28:48.648Z,4.30
2022-08-09T10:34:18.921Z,2.53
2022-08-09T10:36:57.777Z,3.22
2022-08-09T10:39:28.321Z,1.70
2022-08-09T10:41:57.055Z,4.15
2022-08-09T10:44:30.553Z,3.38
2022-08-09T10:48:19.204Z,4.28
2022-08-09T10:50:30.854Z,3.25
2022-08-09T10:53:10.548Z,2.35
2022-08-09T10:55:55.465Z,2.78
2022-08-09T10:58:33.535Z,2.05
2022-08-09T11:03:02.354Z,4.50
2022-08-09T11:04:31.734Z,1.60
2022-08-09T11:07:27.528Z,2.65
2022-08-09T11:10:15.987Z,1.65
2022-08-09T11:13:54.133Z,2.13
2022-08-09T11:16:38.267Z,2.45
2022-08-09T11:19:10.342Z,5.13
2022-08-09T11:22:10.636Z,2.58
2022-08-09T11:25:13.146Z,2.05
2022-08-09T11:28:04.367Z,2.00
2022-08-09T11:30:36.228Z,1.38
2022-08-09T11:33:10.700Z,3.53
2022-08-09T11:35:50.299Z,4.15
2022-08-09T11:38:32.384Z,2.88
2022-08-09T11:41:38.338Z,2.45
2022-08-09T11:44:09.259Z,1.70
2022-08-09T11:46:58.409Z,4.05
2022-08-09T11:50:52.390Z,4.60
2022-08-09T11:53:59.742Z,2.10
2022-08-09T11:56:41.772Z,2.15
2022-08-09T11:59:12.334Z,1.70
2022-08-09T12:02:16.035Z,1.83
2022-08-09T12:04:37.350Z,2.92
2022-08-09T12:07:08.693Z,1.90
2022-08-09T12:09:37.668Z,3.13
2022-08-09T12:12:12.040Z,3.78
2022-08-09T12:15:08.494Z,1.70
2022-08-09T12:17:34.488Z,2.70
2022-08-09T12:20:16.686Z,1.67
2022-08-09T12:22:56.169Z,2.65
2022-08-09T12:25:37.372Z,1.70
2022-08-09T12:29:11.582Z,2.28
2022-08-09T12:30:59.697Z,4.35
2022-08-09T12:33:50.894Z,4.32
2022-08-09T12:36:31.141Z,3.53
2022-08-09T12:39:02.644Z,2.35
2022-08-09T12:41:39.624Z,4.65
2022-08-09T12:44:10.249Z,3.78
2022-08-09T12:46:48.943Z,1.55
2022-08-09T12:49:19.190Z,2.45
2022-08-09T12:52:02.236Z,4.15
2022-08-09T12:55:03.150Z,2.50
2022-08-09T12:57:39.954Z,1.70
2022-08-09T13:00:18.432Z,5.75
2022-08-09T13:02:53.539Z,2.37
2022-08-09T13:05:25.255Z,9.55
2022-08-09T13:08:14.999Z,1.50
2022-08-09T13:10:52.485Z,1.58
2022-08-09T13:14:11.871Z,2.97
2022-08-09T13:16:21.516Z,1.90
2022-08-09T13:18:54.026Z,4.30
2022-08-09T13:22:37.087Z,2.65
2022-08-09T13:24:53.454Z,1.45
2022-08-09T13:27:24.168Z,3.53
2022-08-09T13:30:04.049Z,3.20
2022-08-09T13:32:49.848Z,3.50
2022-08-09T13:35:20.165Z,1.40
2022-08-09T13:37:50.824Z,3.20
2022-08-09T13:41:56.384Z,4.10
2022-08-09T13:43:15.946Z,1.05
2022-08-09T13:46:07.897Z,1.95
2022-08-09T13:48:36.146Z,4.00
2022-08-09T13:51:05.049Z,1.40
2022-08-09T13:53:43.170Z,2.33
2022-08-09T13:56:14.585Z,1.33
2022-08-09T13:58:47.927Z,3.55
2022-08-09T14:01:56.607Z,2.17
2022-08-09T14:04:11.232Z,1.33
2022-08-09T14:06:43.756Z,1.50
2022-08-09T14:09:15.470Z,1.52
2022-08-09T14:11:47.648Z,3.10
2022-08-09T14:14:26.278Z,2.35
2022-08-09T14:16:56.870Z,2.90
2022-08-09T14:19:33.218Z,2.20
2022-08-09T14:22:02.449Z,2.40
2022-08-09T14:24:34.171Z,1.02
2022-08-09T14:27:03.807Z,2.70
2022-08-09T14:30:15.339Z,1.27
2022-08-09T14:32:42.272Z,1.33
2022-08-09T14:35:14.650Z,3.60
2022-08-09T14:38:01.974Z,1.63
2022-08-09T14:41:00.454Z,1.20
2022-08-09T14:43:24.386Z,1.42
2022-08-09T14:46:57.017Z,2.88
2022-08-09T14:48:43.314Z,1.10
2022-08-09T14:51:14.439Z,4.25
2022-08-09T14:53:48.287Z,1.42
2022-08-09T14:56:21.808Z,3.33
2022-08-09T14:58:56.392Z,3.80
2022-08-09T15:01:29.708Z,3.63
2022-08-09T15:04:02.727Z,1.83
2022-08-09T15:06:31.417Z,3.13
2022-08-09T15:09:00.288Z,1.20
2022-08-09T15:11:29.181Z,1.73
2022-08-09T15:14:04.369Z,4.18
2022-08-09T15:16:35.261Z,2.20
2022-08-09T15:19:15.877Z,2.25
2022-08-09T15:21:57.310Z,5.38
2022-08-09T15:24:29.264Z,2.75
2022-08-09T15:26:57.906Z,4.18
2022-08-09T15:30:55.610Z,1.13
2022-08-09T15:32:29.059Z,1.30
2022-08-09T15:35:01.753Z,2.45
2022-08-09T15:37:37.786Z,1.08
2022-08-09T15:40:32.271Z,2.35
2022-08-09T15:43:02.764Z,3.15
2022-08-09T15:46:07.703Z,1.05
2022-08-09T15:48:29.001Z,1.10
2022-08-09T15:50:59.561Z,1.00
2022-08-09T15:54:05.002Z,5.07
2022-08-09T15:56:29.019Z,1.00
2022-08-09T15:58:59.801Z,3.00
2022-08-09T16:01:31.587Z,2.15
2022-08-09T16:04:44.077Z,1.50
2022-08-09T16:07:13.254Z,1.15
2022-08-09T16:10:02.545Z,1.00
2022-08-09T16:12:30.851Z,0.90
2022-08-09T16:14:59.490Z,0.82
2022-08-09T16:17:28.911Z,4.40
2022-08-09T16:20:04.039Z,1.85
2022-08-09T16:22:34.412Z,1.40
2022-08-09T16:25:04.637Z,1.27
2022-08-09T16:27:36.372Z,0.90
2022-08-09T16:30:07.085Z,0.90
2022-08-09T16:32:54.437Z,2.10
2022-08-09T16:35:56.410Z,3.80
2022-08-09T16:38:15.014Z,1.20
2022-08-09T16:40:48.062Z,0.80
2022-08-09T16:43:16.388Z,1.10
2022-08-09T16:45:46.498Z,2.40
2022-08-09T16:48:39.647Z,3.40
2022-08-09T16:51:07.892Z,1.40
2022-08-09T16:53:47.227Z,3.17
2022-08-09T16:56:26.085Z,1.25
2022-08-09T16:58:59.623Z,1.17
2022-08-09T17:01:33.737Z,1.05
2022-08-09T17:04:03.575Z,2.45
2022-08-09T17:08:40.629Z,4.00
2022-08-09T17:09:46.168Z,7.50
2022-08-09T17:12:14.330Z,2.83
2022-08-09T17:14:47.856Z,1.92
2022-08-09T17:17:26.643Z,1.85
2022-08-09T17:20:30.364Z,0.90
2022-08-09T17:22:51.779Z,0.90
2022-08-09T17:25:23.554Z,1.10
2022-08-09T17:27:54.850Z,1.02
2022-08-09T17:30:26.320Z,4.10
2022-08-09T17:32:57.578Z,1.50
2022-08-09T17:35:35.622Z,3.50
2022-08-09T17:38:29.301Z,2.15
2022-08-09T17:41:00.093Z,1.17
2022-08-09T17:43:34.889Z,3.88
2022-08-09T17:46:07.263Z,0.98
2022-08-09T17:48:38.584Z,1.70
2022-08-09T17:51:18.425Z,0.95
2022-08-09T17:53:53.385Z,1.95
2022-08-09T17:56:27.704Z,1.40
2022-08-09T17:59:02.963Z,1.90
2022-08-09T18:01:57.988Z,3.28
2022-08-09T18:04:21.210Z,1.20
2022-08-09T18:06:55.100Z,1.10
2022-08-09T18:09:40.121Z,1.93
2022-08-09T18:12:14.982Z,1.70
2022-08-09T18:14:53.462Z,4.00
2022-08-09T18:18:03.309Z,1.60
2022-08-09T18:20:54.308Z,1.00
2022-08-09T18:23:07.093Z,0.93
2022-08-09T18:25:52.365Z,1.00
2022-08-09T18:30:35.404Z,0.90
2022-08-09T18:31:12.594Z,1.87
2022-08-09T18:33:51.445Z,3.13
2022-08-09T18:36:31.930Z,0.83
2022-08-09T18:39:02.782Z,1.53
2022-08-09T18:41:35.310Z,2.60
2022-08-09T18:44:10.705Z,2.23
2022-08-09T18:46:46.457Z,3.77
2022-08-09T18:49:20.710Z,1.10
2022-08-09T18:51:55.510Z,2.47
2022-08-09T18:54:28.453Z,3.57
2022-08-09T18:57:05.242Z,1.10
2022-08-09T18:59:48.482Z,1.40
2022-08-09T19:02:19.221Z,1.10
2022-08-09T19:05:04.134Z,1.33
2022-08-09T19:07:38.011Z,0.83
2022-08-09T19:13:18.004Z,1.47
2022-08-09T19:21:10.732Z,2.50
2022-08-09T19:24:35.866Z,2.10
2022-08-09T19:27:46.808Z,1.30
2022-08-09T19:30:58.834Z,0.97
2022-08-09T19:34:06.960Z,1.30
2022-08-09T19:37:41.047Z,3.50
2022-08-09T19:40:59.925Z,3.23
2022-08-09T19:44:03.049Z,1.60
2022-08-09T19:53:26.376Z,1.60
2022-08-09T20:01:04.910Z,4.20
2022-08-09T20:04:27.953Z,1.90
2022-08-09T20:07:58.557Z,4.57
2022-08-09T20:16:34.580Z,3.70
2022-08-09T20:19:49.517Z,2.20
2022-08-09T20:22:50.809Z,4.30
2022-08-09T20:30:01.275Z,1.23
2022-08-09T20:49:01.741Z,5.27
2022-08-09T20:51:30.568Z,5.47
2022-08-09T20:54:16.704Z,3.67
2022-08-09T20:56:47.069Z,7.20
2022-08-09T20:59:50.249Z,1.40
2022-08-09T21:02:10.896Z,2.00
2022-08-09T21:05:54.409Z,2.73
2022-08-09T21:07:40.627Z,1.80
2022-08-09T21:10:13.703Z,7.43
2022-08-09T21:15:34.441Z,2.27
2022-08-09T21:18:22.879Z,2.30
2022-08-09T21:20:55.952Z,1.80
2022-08-09T21:28:01.431Z,5.03
2022-08-09T21:30:30.071Z,2.30
2022-08-09T21:32:58.749Z,7.47
2022-08-09T21:35:28.042Z,2.40
2022-08-09T21:38:02.794Z,2.27
2022-08-09T21:40:32.567Z,2.40
2022-08-09T21:43:01.634Z,2.10
2022-08-09T21:45:30.646Z,2.57
2022-08-09T21:48:00.102Z,3.00
2022-08-09T21:50:35.918Z,4.77
2022-08-09T21:53:15.746Z,2.53
2022-08-09T21:55:58.327Z,3.97
2022-08-09T21:58:31.141Z,3.37
2022-08-09T22:01:01.049Z,4.33
2022-08-09T22:08:00.070Z,3.03
2022-08-09T22:10:30.816Z,2.97
2022-08-09T22:13:00.456Z,2.73
2022-08-09T22:15:36.943Z,3.80
2022-08-09T22:18:08.236Z,3.00
2022-08-09T22:20:41.033Z,4.40
2022-08-09T22:23:13.469Z,3.77
2022-08-09T22:26:07.383Z,4.43
2022-08-09T22:28:33.572Z,5.13
2022-08-09T22:31:03.160Z,2.83
2022-08-09T22:33:42.701Z,3.20
2022-08-09T22:36:19.678Z,6.77
2022-08-09T22:38:49.239Z,3.97
2022-08-09T22:41:20.071Z,3.10
2022-08-09T22:44:01.714Z,3.70
2022-08-09T22:48:16.604Z,4.17
2022-08-09T22:49:23.514Z,4.30
2022-08-09T22:51:56.797Z,2.97
2022-08-09T22:54:27.942Z,3.30
2022-08-09T22:57:00.070Z,3.10
2022-08-09T22:59:56.049Z,4.30
2022-08-09T23:02:20.606Z,3.30
2022-08-09T23:04:54.713Z,2.90
2022-08-09T23:08:23.018Z,3.30
2022-08-09T23:10:43.125Z,3.97
2022-08-09T23:13:17.192Z,3.80
2022-08-09T23:16:02.184Z,2.57
2022-08-09T23:18:32.975Z,2.90
2022-08-09T23:21:01.706Z,5.83
2022-08-09T23:23:30.913Z,3.73
2022-08-09T23:26:03.231Z,2.57
2022-08-09T23:28:33.727Z,2.70
2022-08-09T23:31:03.274Z,2.70
2022-08-09T23:33:32.521Z,3.60
2022-08-09T23:36:04.940Z,2.30
2022-08-09T23:38:48.353Z,2.63
2022-08-09T23:41:29.017Z,2.73
2022-08-09T23:44:00.443Z,2.73
2022-08-09T23:46:29.965Z,3.10
2022-08-09T23:48:59.612Z,2.63
2022-08-09T23:51:29.191Z,2.30
2022-08-09T23:58:38.778Z,2.97
